sensor_id;sensor_type;location;lat;lon;timestamp;P1;durP1;ratioP1;P2;durP2;ratioP2
21386;SDS011;10854;45.922;6.716;2023-09-19T11:50:21;2.05;;;1.55;;
21386;SDS011;10854;45.922;6.716;2023-09-19T11:52:54;2.15;;;1.52;;
21386;SDS011;10854;45.922;6.716;2023-09-19T11:55:25;1.58;;;1.20;;
21386;SDS011;10854;45.922;6.716;2023-09-19T11:57:59;4.65;;;1.40;;
21386;SDS011;10854;45.922;6.716;2023-09-19T12:00:29;1.80;;;1.35;;
21386;SDS011;10854;45.922;6.716;2023-09-19T12:02:59;4.75;;;1.33;;
21386;SDS011;10854;45.922;6.716;2023-09-19T12:05:34;1.65;;;1.10;;
21386;SDS011;10854;45.922;6.716;2023-09-19T12:08:14;3.65;;;1.25;;
21386;SDS011;10854;45.922;6.716;2023-09-19T12:10:48;1.83;;;1.42;;
21386;SDS011;10854;45.922;6.716;2023-09-19T12:14:34;1.45;;;1.35;;
21386;SDS011;10854;45.922;6.716;2023-09-19T12:17:35;1.88;;;1.48;;
21386;SDS011;10854;45.922;6.716;2023-09-19T12:20:09;2.08;;;1.20;;
21386;SDS011;10854;45.922;6.716;2023-09-19T12:22:41;6.78;;;1.33;;
21386;SDS011;10854;45.922;6.716;2023-09-19T12:29:03;1.65;;;1.23;;
21386;SDS011;10854;45.922;6.716;2023-09-19T12:31:54;1.30;;;1.20;;
21386;SDS011;10854;45.922;6.716;2023-09-19T12:34:28;2.15;;;1.20;;
21386;SDS011;10854;45.922;6.716;2023-09-19T12:37:10;1.80;;;1.40;;
21386;SDS011;10854;45.922;6.716;2023-09-19T12:40:04;3.67;;;1.20;;
21386;SDS011;10854;45.922;6.716;2023-09-19T12:43:11;0.90;;;0.90;;
21386;SDS011;10854;45.922;6.716;2023-09-19T12:46:02;2.38;;;1.40;;
21386;SDS011;10854;45.922;6.716;2023-09-19T12:48:39;1.17;;;1.05;;
21386;SDS011;10854;45.922;6.716;2023-09-19T12:54:42;1.10;;;0.98;;
21386;SDS011;10854;45.922;6.716;2023-09-19T12:57:24;2.30;;;1.40;;
21386;SDS011;10854;45.922;6.716;2023-09-19T13:00:43;2.08;;;1.30;;
21386;SDS011;10854;45.922;6.716;2023-09-19T13:04:17;2.90;;;1.25;;
21386;SDS011;10854;45.922;6.716;2023-09-19T13:06:54;1.92;;;1.13;;
21386;SDS011;10854;45.922;6.716;2023-09-19T13:10:02;2.42;;;1.10;;
21386;SDS011;10854;45.922;6.716;2023-09-19T13:12:38;1.17;;;1.08;;
21386;SDS011;10854;45.922;6.716;2023-09-19T13:15:18;2.08;;;1.17;;
21386;SDS011;10854;45.922;6.716;2023-09-19T13:17:48;2.97;;;1.15;;
21386;SDS011;10854;45.922;6.716;2023-09-19T13:20:22;2.97;;;1.35;;
21386;SDS011;10854;45.922;6.716;2023-09-19T13:23:05;1.13;;;1.02;;
21386;SDS011;10854;45.922;6.716;2023-09-19T13:25:59;1.10;;;1.00;;
21386;SDS011;10854;45.922;6.716;2023-09-19T13:28:30;3.22;;;1.10;;
21386;SDS011;10854;45.922;6.716;2023-09-19T13:31:04;2.67;;;0.90;;
21386;SDS011;10854;45.922;6.716;2023-09-19T13:33:45;2.20;;;1.08;;
21386;SDS011;10854;45.922;6.716;2023-09-19T13:36:16;4.15;;;1.17;;
21386;SDS011;10854;45.922;6.716;2023-09-19T13:38:47;1.85;;;1.20;;
21386;SDS011;10854;45.922;6.716;2023-09-19T13:41:22;3.40;;;1.38;;
21386;SDS011;10854;45.922;6.716;2023-09-19T13:43:52;5.55;;;1.27;;
21386;SDS011;10854;45.922;6.716;2023-09-19T13:46:21;1.13;;;0.93;;
21386;SDS011;10854;45.922;6.716;2023-09-19T13:49:00;1.25;;;1.15;;
21386;SDS011;10854;45.922;6.716;2023-09-19T13:51:56;1.77;;;1.10;;
21386;SDS011;10854;45.922;6.716;2023-09-19T13:54:35;1.23;;;1.00;;
21386;SDS011;10854;45.922;6.716;2023-09-19T13:57:17;1.35;;;1.10;;
21386;SDS011;10854;45.922;6.716;2023-09-19T13:59:47;1.27;;;1.00;;
21386;SDS011;10854;45.922;6.716;2023-09-19T14:02:18;1.35;;;1.10;;
21386;SDS011;10854;45.922;6.716;2023-09-19T14:04:52;1.55;;;1.08;;
21386;SDS011;10854;45.922;6.716;2023-09-19T14:07:25;1.85;;;1.10;;
21386;SDS011;10854;45.922;6.716;2023-09-19T14:10:04;1.00;;;0.90;;
21386;SDS011;10854;45.922;6.716;2023-09-19T14:12:57;1.52;;;1.10;;
21386;SDS011;10854;45.922;6.716;2023-09-19T14:15:27;1.08;;;0.95;;
21386;SDS011;10854;45.922;6.716;2023-09-19T14:18:10;1.63;;;1.17;;
21386;SDS011;10854;45.922;6.716;2023-09-19T14:20:44;3.40;;;1.23;;
21386;SDS011;10854;45.922;6.716;2023-09-19T14:23:21;2.75;;;1.08;;
21386;SDS011;10854;45.922;6.716;2023-09-19T14:26:00;1.30;;;1.00;;
21386;SDS011;10854;45.922;6.716;2023-09-19T14:28:37;1.10;;;1.00;;
21386;SDS011;10854;45.922;6.716;2023-09-19T14:31:08;1.20;;;1.10;;
21386;SDS011;10854;45.922;6.716;2023-09-19T14:33:38;3.85;;;1.20;;
21386;SDS011;10854;45.922;6.716;2023-09-19T14:36:31;2.20;;;1.15;;
21386;SDS011;10854;45.922;6.716;2023-09-19T14:39:03;1.10;;;0.98;;
21386;SDS011;10854;45.922;6.716;2023-09-19T14:41:41;1.95;;;1.17;;
21386;SDS011;10854;45.922;6.716;2023-09-19T14:44:15;1.33;;;1.00;;
21386;SDS011;10854;45.922;6.716;2023-09-19T14:46:48;1.10;;;1.00;;
21386;SDS011;10854;45.922;6.716;2023-09-19T14:49:19;3.90;;;1.33;;
21386;SDS011;10854;45.922;6.716;2023-09-19T14:51:55;2.70;;;1.20;;
21386;SDS011;10854;45.922;6.716;2023-09-19T14:54:30;1.23;;;1.10;;
21386;SDS011;10854;45.922;6.716;2023-09-19T14:57:04;2.22;;;1.15;;
21386;SDS011;10854;45.922;6.716;2023-09-19T14:59:55;2.22;;;1.25;;
21386;SDS011;10854;45.922;6.716;2023-09-19T15:02:27;1.33;;;1.05;;
21386;SDS011;10854;45.922;6.716;2023-09-19T15:04:59;2.42;;;1.10;;
21386;SDS011;10854;45.922;6.716;2023-09-19T15:07:32;3.33;;;1.15;;
21386;SDS011;10854;45.922;6.716;2023-09-19T15:10:01;1.20;;;1.10;;
21386;SDS011;10854;45.922;6.716;2023-09-19T15:12:34;1.50;;;0.80;;
21386;SDS011;10854;45.922;6.716;2023-09-19T15:15:06;1.30;;;1.10;;
21386;SDS011;10854;45.922;6.716;2023-09-19T15:17:39;2.17;;;1.20;;
21386;SDS011;10854;45.922;6.716;2023-09-19T15:20:25;1.40;;;1.10;;
21386;SDS011;10854;45.922;6.716;2023-09-19T15:22:59;2.58;;;1.10;;
21386;SDS011;10854;45.922;6.716;2023-09-19T15:25:29;2.63;;;1.42;;
21386;SDS011;10854;45.922;6.716;2023-09-19T15:28:07;1.83;;;1.17;;
21386;SDS011;10854;45.922;6.716;2023-09-19T15:30:39;1.58;;;1.15;;
21386;SDS011;10854;45.922;6.716;2023-09-19T15:33:11;1.35;;;1.00;;
21386;SDS011;10854;45.922;6.716;2023-09-19T15:35:42;3.35;;;1.17;;
21386;SDS011;10854;45.922;6.716;2023-09-19T15:38:16;2.35;;;1.05;;
21386;SDS011;10854;45.922;6.716;2023-09-19T15:40:52;2.80;;;1.50;;
21386;SDS011;10854;45.922;6.716;2023-09-19T15:43:33;2.00;;;1.13;;
21386;SDS011;10854;45.922;6.716;2023-09-19T15:46:05;1.33;;;1.17;;
21386;SDS011;10854;45.922;6.716;2023-09-19T15:48:58;1.30;;;1.20;;
21386;SDS011;10854;45.922;6.716;2023-09-19T15:51:45;1.90;;;1.02;;
21386;SDS011;10854;45.922;6.716;2023-09-19T15:54:42;2.53;;;1.08;;
21386;SDS011;10854;45.922;6.716;2023-09-19T15:57:12;2.95;;;1.20;;
21386;SDS011;10854;45.922;6.716;2023-09-19T15:59:46;1.20;;;1.10;;
21386;SDS011;10854;45.922;6.716;2023-09-19T16:02:14;2.08;;;1.02;;
21386;SDS011;10854;45.922;6.716;2023-09-19T16:04:50;3.35;;;1.42;;
21386;SDS011;10854;45.922;6.716;2023-09-19T16:07:49;1.40;;;1.20;;
21386;SDS011;10854;45.922;6.716;2023-09-19T16:11:01;4.35;;;1.30;;
21386;SDS011;10854;45.922;6.716;2023-09-19T16:14:04;1.17;;;0.93;;
21386;SDS011;10854;45.922;6.716;2023-09-19T16:17:02;1.65;;;1.13;;
21386;SDS011;10854;45.922;6.716;2023-09-19T16:19:39;3.72;;;1.35;;
21386;SDS011;10854;45.922;6.716;2023-09-19T16:22:31;2.30;;;1.13;;
21386;SDS011;10854;45.922;6.716;2023-09-19T16:25:02;1.42;;;1.20;;
21386;SDS011;10854;45.922;6.716;2023-09-19T16:28:03;1.80;;;1.10;;
21386;SDS011;10854;45.922;6.716;2023-09-19T16:41:39;1.27;;;1.05;;
21386;SDS011;10854;45.922;6.716;2023-09-19T16:44:52;1.35;;;1.25;;
21386;SDS011;10854;45.922;6.716;2023-09-19T16:47:25;3.17;;;1.30;;
21386;SDS011;10854;45.922;6.716;2023-09-19T16:50:01;1.85;;;1.15;;
21386;SDS011;10854;45.922;6.716;2023-09-19T16:52:34;1.95;;;1.27;;
21386;SDS011;10854;45.922;6.716;2023-09-19T16:55:33;1.60;;;1.20;;
21386;SDS011;10854;45.922;6.716;2023-09-19T16:58:09;4.20;;;1.33;;
21386;SDS011;10854;45.922;6.716;2023-09-19T17:00:43;1.35;;;1.00;;
21386;SDS011;10854;45.922;6.716;2023-09-19T17:03:21;1.58;;;1.33;;
21386;SDS011;10854;45.922;6.716;2023-09-19T17:06:38;4.15;;;1.23;;
21386;SDS011;10854;45.922;6.716;2023-09-19T17:09:14;3.42;;;1.50;;
21386;SDS011;10854;45.922;6.716;2023-09-19T17:12:07;2.67;;;1.13;;
21386;SDS011;10854;45.922;6.716;2023-09-19T17:14:50;3.93;;;1.53;;
21386;SDS011;10854;45.922;6.716;2023-09-19T17:17:54;5.17;;;1.60;;
21386;SDS011;10854;45.922;6.716;2023-09-19T17:20:52;5.40;;;1.43;;
21386;SDS011;10854;45.922;6.716;2023-09-19T17:23:30;2.77;;;1.50;;
21386;SDS011;10854;45.922;6.716;2023-09-19T17:26:35;2.17;;;1.40;;
21386;SDS011;10854;45.922;6.716;2023-09-19T17:29:06;1.70;;;1.40;;
21386;SDS011;10854;45.922;6.716;2023-09-19T17:32:00;4.27;;;1.43;;
21386;SDS011;10854;45.922;6.716;2023-09-19T17:34:36;2.90;;;1.50;;
21386;SDS011;10854;45.922;6.716;2023-09-19T17:37:19;3.67;;;1.77;;
21386;SDS011;10854;45.922;6.716;2023-09-19T17:39:49;4.80;;;1.70;;
21386;SDS011;10854;45.922;6.716;2023-09-19T17:43:12;3.47;;;1.57;;
21386;SDS011;10854;45.922;6.716;2023-09-19T17:46:15;4.13;;;1.53;;
21386;SDS011;10854;45.922;6.716;2023-09-19T17:49:08;2.83;;;1.57;;
21386;SDS011;10854;45.922;6.716;2023-09-19T17:52:05;3.17;;;1.70;;
21386;SDS011;10854;45.922;6.716;2023-09-19T17:54:57;5.60;;;1.63;;
21386;SDS011;10854;45.922;6.716;2023-09-19T17:57:49;2.20;;;1.70;;
21386;SDS011;10854;45.922;6.716;2023-09-19T18:00:34;4.17;;;1.60;;
21386;SDS011;10854;45.922;6.716;2023-09-19T18:03:16;3.90;;;1.53;;
21386;SDS011;10854;45.922;6.716;2023-09-19T18:06:10;2.23;;;1.40;;
21386;SDS011;10854;45.922;6.716;2023-09-19T18:08:52;5.37;;;1.77;;
21386;SDS011;10854;45.922;6.716;2023-09-19T18:11:48;3.70;;;1.70;;
21386;SDS011;10854;45.922;6.716;2023-09-19T18:14:25;2.10;;;1.50;;
21386;SDS011;10854;45.922;6.716;2023-09-19T18:17:21;4.00;;;1.70;;
21386;SDS011;10854;45.922;6.716;2023-09-19T18:19:59;5.47;;;1.60;;
21386;SDS011;10854;45.922;6.716;2023-09-19T18:22:34;3.07;;;1.87;;
21386;SDS011;10854;45.922;6.716;2023-09-19T18:25:10;3.00;;;1.90;;
21386;SDS011;10854;45.922;6.716;2023-09-19T18:27:46;5.43;;;1.93;;
21386;SDS011;10854;45.922;6.716;2023-09-19T18:30:31;5.57;;;1.80;;
21386;SDS011;10854;45.922;6.716;2023-09-19T18:33:11;3.37;;;1.60;;
21386;SDS011;10854;45.922;6.716;2023-09-19T18:36:05;2.93;;;1.60;;
21386;SDS011;10854;45.922;6.716;2023-09-19T18:38:51;2.03;;;1.80;;
21386;SDS011;10854;45.922;6.716;2023-09-19T18:41:42;3.23;;;1.80;;
21386;SDS011;10854;45.922;6.716;2023-09-19T18:44:35;5.53;;;1.97;;
21386;SDS011;10854;45.922;6.716;2023-09-19T18:47:10;2.73;;;2.20;;
21386;SDS011;10854;45.922;6.716;2023-09-19T18:49:45;4.63;;;1.80;;
21386;SDS011;10854;45.922;6.716;2023-09-19T18:52:25;2.90;;;1.70;;
21386;SDS011;10854;45.922;6.716;2023-09-19T18:55:06;3.03;;;1.73;;
21386;SDS011;10854;45.922;6.716;2023-09-19T18:57:59;5.70;;;1.80;;
21386;SDS011;10854;45.922;6.716;2023-09-19T19:01:03;2.63;;;1.73;;
21386;SDS011;10854;45.922;6.716;2023-09-19T19:04:11;9.53;;;2.13;;
21386;SDS011;10854;45.922;6.716;2023-09-19T19:06:47;2.10;;;1.70;;
21386;SDS011;10854;45.922;6.716;2023-09-19T19:09:38;5.73;;;2.07;;
21386;SDS011;10854;45.922;6.716;2023-09-19T19:12:55;4.47;;;2.00;;
21386;SDS011;10854;45.922;6.716;2023-09-19T19:16:03;6.70;;;2.20;;
21386;SDS011;10854;45.922;6.716;2023-09-19T19:18:58;4.47;;;2.30;;
21386;SDS011;10854;45.922;6.716;2023-09-19T19:21:35;3.60;;;2.10;;
21386;SDS011;10854;45.922;6.716;2023-09-19T19:24:29;5.53;;;2.00;;
21386;SDS011;10854;45.922;6.716;2023-09-19T19:27:21;5.97;;;2.23;;
21386;SDS011;10854;45.922;6.716;2023-09-19T19:30:14;4.63;;;2.03;;
21386;SDS011;10854;45.922;6.716;2023-09-19T19:33:25;2.27;;;1.90;;
21386;SDS011;10854;45.922;6.716;2023-09-19T19:36:09;3.90;;;2.30;;
21386;SDS011;10854;45.922;6.716;2023-09-19T19:39:28;4.73;;;2.07;;
21386;SDS011;10854;45.922;6.716;2023-09-19T19:42:00;4.87;;;1.90;;
21386;SDS011;10854;45.922;6.716;2023-09-19T19:44:37;3.00;;;2.00;;
21386;SDS011;10854;45.922;6.716;2023-09-19T19:47:26;4.57;;;2.13;;
21386;SDS011;10854;45.922;6.716;2023-09-19T19:50:24;2.60;;;2.00;;
21386;SDS011;10854;45.922;6.716;2023-09-19T19:53:42;3.83;;;2.13;;
21386;SDS011;10854;45.922;6.716;2023-09-19T19:56:28;3.13;;;2.07;;
21386;SDS011;10854;45.922;6.716;2023-09-19T19:59:09;2.40;;;2.20;;
21386;SDS011;10854;45.922;6.716;2023-09-19T20:01:39;2.70;;;2.40;;
21386;SDS011;10854;45.922;6.716;2023-09-19T20:04:20;3.00;;;2.13;;
21386;SDS011;10854;45.922;6.716;2023-09-19T20:07:06;5.10;;;2.30;;
21386;SDS011;10854;45.922;6.716;2023-09-19T20:09:45;2.77;;;2.10;;
21386;SDS011;10854;45.922;6.716;2023-09-19T20:12:37;6.03;;;2.50;;
21386;SDS011;10854;45.922;6.716;2023-09-19T20:15:14;3.30;;;2.53;;
21386;SDS011;10854;45.922;6.716;2023-09-19T20:17:53;3.90;;;2.40;;
21386;SDS011;10854;45.922;6.716;2023-09-19T20:20:34;3.43;;;2.40;;
21386;SDS011;10854;45.922;6.716;2023-09-19T20:23:31;3.60;;;2.33;;
21386;SDS011;10854;45.922;6.716;2023-09-19T20:26:06;4.57;;;2.40;;
21386;SDS011;10854;45.922;6.716;2023-09-19T20:28:57;4.60;;;2.60;;
21386;SDS011;10854;45.922;6.716;2023-09-19T20:31:28;2.73;;;2.23;;
21386;SDS011;10854;45.922;6.716;2023-09-19T20:34:06;5.13;;;2.50;;
21386;SDS011;10854;45.922;6.716;2023-09-19T20:36:59;2.53;;;2.33;;
21386;SDS011;10854;45.922;6.716;2023-09-19T20:39:47;3.43;;;2.43;;
21386;SDS011;10854;45.922;6.716;2023-09-19T20:42:29;3.73;;;2.50;;
21386;SDS011;10854;45.922;6.716;2023-09-19T20:45:13;5.60;;;2.70;;
21386;SDS011;10854;45.922;6.716;2023-09-19T20:48:09;3.07;;;2.67;;
21386;SDS011;10854;45.922;6.716;2023-09-19T20:50:48;5.03;;;2.63;;
21386;SDS011;10854;45.922;6.716;2023-09-19T20:53:38;5.03;;;2.47;;
21386;SDS011;10854;45.922;6.716;2023-09-19T20:56:21;4.53;;;2.30;;
21386;SDS011;10854;45.922;6.716;2023-09-19T20:59:03;4.27;;;2.50;;
21386;SDS011;10854;45.922;6.716;2023-09-19T21:01:48;3.73;;;2.30;;
21386;SDS011;10854;45.922;6.716;2023-09-19T21:04:50;2.53;;;2.30;;
21386;SDS011;10854;45.922;6.716;2023-09-19T21:07:23;4.53;;;2.77;;
21386;SDS011;10854;45.922;6.716;2023-09-19T21:09:57;5.43;;;2.47;;
21386;SDS011;10854;45.922;6.716;2023-09-19T21:12:49;3.63;;;2.43;;
21386;SDS011;10854;45.922;6.716;2023-09-19T21:15:57;3.93;;;2.80;;
21386;SDS011;10854;45.922;6.716;2023-09-19T21:18:51;4.23;;;2.80;;
21386;SDS011;10854;45.922;6.716;2023-09-19T21:21:42;4.70;;;2.70;;
21386;SDS011;10854;45.922;6.716;2023-09-19T21:24:14;7.20;;;2.70;;
21386;SDS011;10854;45.922;6.716;2023-09-19T21:27:04;7.83;;;2.73;;
21386;SDS011;10854;45.922;6.716;2023-09-19T21:29:35;2.43;;;2.20;;
21386;SDS011;10854;45.922;6.716;2023-09-19T21:32:09;3.00;;;2.57;;
21386;SDS011;10854;45.922;6.716;2023-09-19T21:34:41;4.33;;;2.53;;
21386;SDS011;10854;45.922;6.716;2023-09-19T21:37:13;2.13;;;1.90;;
21386;SDS011;10854;45.922;6.716;2023-09-19T21:40:32;4.63;;;2.20;;
21386;SDS011;10854;45.922;6.716;2023-09-19T21:43:03;4.00;;;2.10;;
21386;SDS011;10854;45.922;6.716;2023-09-19T21:45:38;4.20;;;2.37;;
21386;SDS011;10854;45.922;6.716;2023-09-19T21:48:47;5.13;;;2.17;;
21386;SDS011;10854;45.922;6.716;2023-09-19T21:51:21;3.30;;;2.10;;
21386;SDS011;10854;45.922;6.716;2023-09-19T21:54:18;4.53;;;1.90;;
21386;SDS011;10854;45.922;6.716;2023-09-19T21:56:57;3.23;;;2.10;;
21386;SDS011;10854;45.922;6.716;2023-09-19T22:00:18;3.80;;;2.10;;
21386;SDS011;10854;45.922;6.716;2023-09-19T22:03:28;5.60;;;2.30;;
21386;SDS011;10854;45.922;6.716;2023-09-19T22:06:15;4.40;;;2.30;;
21386;SDS011;10854;45.922;6.716;2023-09-19T22:08:48;3.00;;;2.30;;
21386;SDS011;10854;45.922;6.716;2023-09-19T22:11:22;3.90;;;2.30;;
21386;SDS011;10854;45.922;6.716;2023-09-19T22:13:55;2.43;;;2.20;;
21386;SDS011;10854;45.922;6.716;2023-09-19T22:16:31;5.53;;;2.50;;
21386;SDS011;10854;45.922;6.716;2023-09-19T22:19:05;3.13;;;2.30;;
21386;SDS011;10854;45.922;6.716;2023-09-19T22:21:45;5.03;;;2.20;;
21386;SDS011;10854;45.922;6.716;2023-09-19T22:24:15;3.47;;;2.30;;
21386;SDS011;10854;45.922;6.716;2023-09-19T22:26:56;7.03;;;2.47;;
21386;SDS011;10854;45.922;6.716;2023-09-19T22:29:33;3.67;;;2.17;;
21386;SDS011;10854;45.922;6.716;2023-09-19T22:32:28;4.03;;;2.30;;
21386;SDS011;10854;45.922;6.716;2023-09-19T22:35:08;5.53;;;2.90;;
21386;SDS011;10854;45.922;6.716;2023-09-19T22:37:41;10.10;;;2.80;;
21386;SDS011;10854;45.922;6.716;2023-09-19T22:40:46;6.33;;;2.70;;
21386;SDS011;10854;45.922;6.716;2023-09-19T22:43:44;4.23;;;2.77;;
21386;SDS011;10854;45.922;6.716;2023-09-19T22:46:18;3.43;;;2.77;;
21386;SDS011;10854;45.922;6.716;2023-09-19T22:48:57;3.63;;;2.77;;
21386;SDS011;10854;45.922;6.716;2023-09-19T22:51:56;3.73;;;2.90;;
21386;SDS011;10854;45.922;6.716;2023-09-19T22:54:30;4.50;;;2.60;;
21386;SDS011;10854;45.922;6.716;2023-09-19T22:57:16;5.30;;;3.27;;
21386;SDS011;10854;45.922;6.716;2023-09-19T22:59:59;6.37;;;3.10;;
21386;SDS011;10854;45.922;6.716;2023-09-19T23:02:42;3.67;;;2.83;;
21386;SDS011;10854;45.922;6.716;2023-09-19T23:05:13;5.70;;;3.03;;
21386;SDS011;10854;45.922;6.716;2023-09-19T23:07:46;4.10;;;2.90;;
21386;SDS011;10854;45.922;6.716;2023-09-19T23:10:44;4.33;;;2.77;;
21386;SDS011;10854;45.922;6.716;2023-09-19T23:13:20;6.57;;;3.00;;
21386;SDS011;10854;45.922;6.716;2023-09-19T23:15:56;5.20;;;3.23;;
21386;SDS011;10854;45.922;6.716;2023-09-19T23:18:58;3.87;;;3.10;;
21386;SDS011;10854;45.922;6.716;2023-09-19T23:21:38;5.73;;;2.83;;
21386;SDS011;10854;45.922;6.716;2023-09-19T23:24:38;6.43;;;3.17;;
21386;SDS011;10854;45.922;6.716;2023-09-19T23:27:11;5.10;;;3.30;;
21386;SDS011;10854;45.922;6.716;2023-09-19T23:29:59;4.60;;;3.30;;
21386;SDS011;10854;45.922;6.716;2023-09-19T23:32:29;4.73;;;3.00;;
21386;SDS011;10854;45.922;6.716;2023-09-19T23:35:21;3.67;;;3.20;;
21386;SDS011;10854;45.922;6.716;2023-09-19T23:37:59;7.27;;;3.43;;
21386;SDS011;10854;45.922;6.716;2023-09-19T23:40:57;5.17;;;3.57;;
21386;SDS011;10854;45.922;6.716;2023-09-19T23:43:27;4.13;;;2.90;;
21386;SDS011;10854;45.922;6.716;2023-09-19T23:46:14;3.33;;;2.97;;
21386;SDS011;10854;45.922;6.716;2023-09-19T23:48:43;3.77;;;3.03;;
21386;SDS011;10854;45.922;6.716;2023-09-19T23:51:41;3.83;;;2.87;;
21386;SDS011;10854;45.922;6.716;2023-09-19T23:54:15;4.50;;;3.10;;
21386;SDS011;10854;45.922;6.716;2023-09-19T23:57:01;4.77;;;3.23;;
21386;SDS011;10854;45.922;6.716;2023-09-19T23:59:50;3.37;;;2.53;;
